Laguna de Pozuelos, Argentina
Current Conditions -  °F | °C
As of 7:00 PM on Sunday 25 Jan 2015 (Local Time) from SLTJ Reporting Station
Few Clouds Few Clouds  
Wind Chill: 75°   Ceiling: Unl
Heat Index: 75°   Visibility: 6mi
Dew Point: 59°   Wind: 12mph
Humidity: 57%   Direction: 130°SE
Pressure: 30.03"   Gusts: NA
Location:  22.37°S, 66.02°W
Report Text: SLTJ 252200Z 13010KT 9999 FEW036 FEW040CB 24/15 Q1017
Loading
Personal Weather Stations






























Interactive Weather Map New forecast layout! Learn more

10-Day Weather Forecast

Advertisements
Track Severe Weather on mobile